Time;durP1;ratioP1;P1;durP2;ratioP2;P2;SDS_P1;SDS_P2;PMS_P1;PMS_P2;Temp;Humidity;BMP_temperature;BMP_pressure;BME280_temperature;BME280_humidity;BME280_pressure;Samples;Min_cycle;Max_cycle;Signal;HPM_P1;HPM_P2
2023/06/18 00:00:16;;;;;;;8.05;2.80;;;;;;;17.83;100.00;99476.88;5009120;28;20026;-19
2023/06/18 00:02:42;;;;;;;7.88;2.70;;;;;;;17.76;100.00;99452.09;5009239;28;21016;-23
2023/06/18 00:05:08;;;;;;;5.22;2.45;;;;;;;17.75;100.00;99465.84;5009091;28;20079;-19
2023/06/18 00:07:33;;;;;;;5.80;3.08;;;;;;;17.86;100.00;99470.13;5009274;28;20026;-19
2023/06/18 00:09:59;;;;;;;3.33;2.13;;;;;;;17.81;100.00;99464.72;5008893;28;20030;-19
2023/06/18 00:12:24;;;;;;;7.22;3.20;;;;;;;17.87;100.00;99477.13;5008867;28;20099;-19
2023/06/18 00:14:50;;;;;;;6.65;2.72;;;;;;;17.82;100.00;99474.44;5008844;28;20069;-19
2023/06/18 00:17:15;;;;;;;6.18;3.35;;;;;;;17.84;100.00;99473.09;5009188;28;20033;-19
2023/06/18 00:19:41;;;;;;;7.78;2.90;;;;;;;17.70;100.00;99476.69;5008812;28;20030;-22
2023/06/18 00:22:06;;;;;;;6.10;2.80;;;;;;;17.63;100.00;99474.28;5008627;28;20529;-19
2023/06/18 00:24:32;;;;;;;8.93;2.78;;;;;;;17.58;100.00;99467.03;5008804;28;20048;-18
2023/06/18 00:26:57;;;;;;;5.63;2.92;;;;;;;17.89;100.00;99477.63;5008432;28;20480;-20
2023/06/18 00:29:22;;;;;;;6.03;3.08;;;;;;;17.77;100.00;99459.09;5008661;28;20188;-19
2023/06/18 00:31:48;;;;;;;9.63;3.47;;;;;;;17.82;100.00;99474.44;5008403;28;20033;-19
2023/06/18 00:34:14;;;;;;;6.50;3.15;;;;;;;17.81;100.00;99467.41;5008772;28;20088;-19
2023/06/18 00:36:43;;;;;;;6.57;3.35;;;;;;;17.80;100.00;99473.91;5008586;28;20026;-19
2023/06/18 00:39:09;;;;;;;10.27;3.50;;;;;;;17.72;100.00;99474.53;5008593;28;20030;-19
2023/06/18 00:41:35;;;;;;;9.23;3.90;;;;;;;17.59;100.00;99459.75;5007901;28;20533;-18
2023/06/18 00:44:01;;;;;;;8.70;3.80;;;;;;;17.71;100.00;99475.59;5008149;28;20124;-19
2023/06/18 00:46:30;;;;;;;7.47;4.30;;;;;;;17.76;100.00;99470.19;5008262;28;20057;-19
2023/06/18 00:48:57;;;;;;;10.15;3.70;;;;;;;17.77;100.00;99463.69;5008120;28;20068;-21
2023/06/18 00:51:26;;;;;;;8.65;4.30;;;;;;;17.64;100.00;99451.66;5008060;28;20026;-19
2023/06/18 00:53:52;;;;;;;8.98;4.40;;;;;;;17.67;100.00;99472.63;5007829;28;20115;-18
2023/06/18 00:56:18;;;;;;;10.13;4.43;;;;;;;17.66;100.00;99474.53;5008163;28;20083;-18
2023/06/18 00:58:47;;;;;;;8.15;4.25;;;;;;;17.66;100.00;99469.16;5008001;28;20037;-19
2023/06/18 01:01:14;;;;;;;7.32;4.22;;;;;;;17.56;100.00;99474.59;5007932;28;20033;-25
2023/06/18 01:03:41;;;;;;;6.25;4.28;;;;;;;17.45;100.00;99473.06;5008166;28;20029;-22
2023/06/18 01:06:09;;;;;;;5.88;3.80;;;;;;;17.48;100.00;99469.81;5007656;28;20045;-19
2023/06/18 01:08:35;;;;;;;6.35;3.63;;;;;;;17.50;100.00;99467.63;5007647;28;20022;-19
2023/06/18 01:11:03;;;;;;;9.63;3.78;;;;;;;17.48;100.00;99472.50;5007973;28;20034;-19
2023/06/18 01:13:36;;;;;;;7.22;4.10;;;;;;;17.59;100.00;99471.38;5007780;28;20030;-18
2023/06/18 01:16:06;;;;;;;7.40;4.20;;;;;;;17.59;100.00;99471.38;5007856;28;20103;-19
2023/06/18 01:18:36;;;;;;;6.63;4.20;;;;;;;17.46;100.00;99458.50;5007611;28;20034;-19
2023/06/18 01:21:09;;;;;;;8.75;4.18;;;;;;;17.39;100.00;99487.66;5007629;28;20932;-18
2023/06/18 01:24:11;;;;;;;8.98;4.03;;;;;;;17.42;100.00;99487.09;5007550;28;20656;-19
2023/06/18 01:26:40;;;;;;;7.72;4.00;;;;;;;17.40;100.00;99489.25;5000341;28;20050;-18
2023/06/18 01:29:10;;;;;;;9.18;4.32;;;;;;;17.30;100.00;99494.69;5007571;28;20038;-20
2023/06/18 01:31:36;;;;;;;9.52;4.53;;;;;;;17.26;100.00;99499.84;5007402;28;20034;-19
2023/06/18 01:34:04;;;;;;;9.10;4.68;;;;;;;17.33;100.00;99502.25;5007279;28;20140;-19
2023/06/18 01:36:30;;;;;;;9.73;5.07;;;;;;;17.19;100.00;99510.13;5007662;28;20030;-19
2023/06/18 01:39:06;;;;;;;12.57;4.93;;;;;;;17.03;100.00;99498.59;5006959;28;20042;-18
2023/06/18 01:41:36;;;;;;;14.82;6.28;;;;;;;17.07;100.00;99489.69;5007255;28;20532;-19
2023/06/18 01:44:06;;;;;;;15.18;5.63;;;;;;;17.01;100.00;99500.75;5007038;28;20050;-19
2023/06/18 01:46:31;;;;;;;13.30;5.50;;;;;;;17.04;100.00;99514.50;5007230;28;20036;-19
2023/06/18 01:49:00;;;;;;;11.32;5.32;;;;;;;16.91;100.00;99504.28;5007003;28;20034;-19
2023/06/18 01:51:30;;;;;;;21.17;5.65;;;;;;;17.02;100.00;99526.59;5006480;28;20046;-19
2023/06/18 01:53:56;;;;;;;12.90;5.75;;;;;;;16.95;100.00;99520.72;5006775;28;20032;-20
2023/06/18 01:56:23;;;;;;;15.65;5.00;;;;;;;16.80;100.00;99522.34;5006987;28;20060;-20
2023/06/18 01:58:50;;;;;;;12.40;5.03;;;;;;;16.75;100.00;99537.69;5006951;28;20041;-19
2023/06/18 02:01:15;;;;;;;23.17;5.18;;;;;;;16.75;100.00;99543.88;5006924;28;20034;-19
2023/06/18 02:03:41;;;;;;;22.05;5.28;;;;;;;16.83;100.00;99540.66;5007222;28;20398;-19
2023/06/18 02:06:07;;;;;;;19.10;5.10;;;;;;;16.86;100.00;99550.91;5006570;28;20398;-18
2023/06/18 02:08:33;;;;;;;18.95;4.78;;;;;;;17.00;100.00;99544.91;5006794;28;20062;-18
2023/06/18 02:10:58;;;;;;;16.90;4.82;;;;;;;16.91;100.00;99551.97;5006548;28;20025;-18
2023/06/18 02:13:24;;;;;;;15.32;5.05;;;;;;;16.86;100.00;99545.50;5006903;28;20413;-19
2023/06/18 02:15:49;;;;;;;15.75;5.05;;;;;;;16.97;100.00;99550.88;5006617;28;20495;-19
2023/06/18 02:18:15;;;;;;;20.08;5.30;;;;;;;16.76;100.00;99550.88;5006417;28;20073;-19
2023/06/18 02:20:41;;;;;;;12.95;6.25;;;;;;;16.91;100.00;99558.16;5006714;28;20029;-19
2023/06/18 02:23:08;;;;;;;15.50;5.93;;;;;;;16.58;100.00;99554.16;5006459;28;20029;-19
2023/06/18 02:25:33;;;;;;;16.58;5.28;;;;;;;16.47;100.00;99554.16;5006349;28;20081;-20
2023/06/18 02:28:00;;;;;;;15.25;5.40;;;;;;;16.50;100.00;99558.19;5006218;28;20421;-18
2023/06/18 02:30:29;;;;;;;14.32;5.43;;;;;;;16.50;100.00;99554.69;5006523;28;20041;-19
2023/06/18 02:32:58;;;;;;;16.25;5.43;;;;;;;16.68;100.00;99548.75;5006317;28;20509;-18
2023/06/18 02:35:24;;;;;;;13.40;5.18;;;;;;;16.82;100.00;99555.22;5006481;28;21241;-19
2023/06/18 02:37:50;;;;;;;15.30;6.15;;;;;;;16.69;100.00;99561.13;5006057;28;20030;-19
2023/06/18 02:40:15;;;;;;;18.33;5.65;;;;;;;16.76;100.00;99556.28;5006117;28;20033;-19
2023/06/18 02:42:47;;;;;;;13.40;5.10;;;;;;;16.71;100.00;99561.66;5006138;28;20050;-19
2023/06/18 02:45:18;;;;;;;17.83;5.70;;;;;;;16.63;100.00;99562.19;5006270;28;20797;-19
2023/06/18 02:47:45;;;;;;;10.65;4.90;;;;;;;16.86;100.00;99571.63;5005939;28;20038;-23
2023/06/18 02:50:11;;;;;;;9.60;5.10;;;;;;;16.66;100.00;99561.69;5006476;28;20033;-20
2023/06/18 02:52:37;;;;;;;11.88;5.60;;;;;;;16.70;100.00;99568.13;5005848;28;20425;-18
2023/06/18 02:55:04;;;;;;;15.05;5.30;;;;;;;16.70;100.00;99562.75;5005757;28;20601;-19
2023/06/18 02:57:29;;;;;;;20.73;6.00;;;;;;;16.67;100.00;99569.50;5005868;28;20030;-19
2023/06/18 02:59:55;;;;;;;13.85;6.43;;;;;;;16.68;100.00;99563.00;5006058;28;20032;-19
2023/06/18 03:02:20;;;;;;;14.10;5.78;;;;;;;16.56;100.00;99565.19;5005615;28;20030;-18
2023/06/18 03:04:46;;;;;;;12.90;5.30;;;;;;;16.61;100.00;99580.50;5005163;28;20026;-20
2023/06/18 03:07:11;;;;;;;14.73;5.82;;;;;;;16.76;100.00;99577.00;5006056;28;20053;-21
2023/06/18 03:09:37;;;;;;;11.88;5.75;;;;;;;16.79;100.00;99579.94;5005749;28;20129;-18
2023/06/18 03:12:02;;;;;;;12.98;5.47;;;;;;;16.59;100.00;99577.28;5006100;28;20032;-19
2023/06/18 03:14:28;;;;;;;13.38;5.57;;;;;;;16.34;100.00;99586.19;5005829;28;20032;-19
2023/06/18 03:16:53;;;;;;;15.73;5.50;;;;;;;16.51;100.00;99585.91;5005549;28;20449;-22
2023/06/18 03:19:18;;;;;;;15.02;5.78;;;;;;;16.68;100.00;99586.44;5005747;28;20037;-19
2023/06/18 03:21:44;;;;;;;15.05;5.40;;;;;;;16.76;100.00;99593.97;5005659;28;20113;-23
2023/06/18 03:24:11;;;;;;;14.90;5.38;;;;;;;16.58;100.00;99605.28;5005858;28;20432;-19
2023/06/18 03:26:37;;;;;;;15.85;5.85;;;;;;;16.56;100.00;99602.88;5005369;28;20034;-20
2023/06/18 03:29:03;;;;;;;12.55;5.40;;;;;;;16.73;100.00;99605.28;5005753;28;20077;-20
2023/06/18 03:31:30;;;;;;;13.70;5.90;;;;;;;16.67;100.00;99603.66;5005610;28;20069;-19
2023/06/18 03:34:01;;;;;;;13.50;5.30;;;;;;;16.73;100.00;99604.47;5005588;28;20116;-22
2023/06/18 03:36:39;;;;;;;15.23;6.10;;;;;;;16.86;100.00;99604.75;5005475;28;20115;-19
2023/06/18 03:39:11;;;;;;;13.32;5.78;;;;;;;16.93;100.00;99603.66;5005539;28;20116;-21
2023/06/18 03:41:38;;;;;;;11.75;5.90;;;;;;;16.75;100.00;99608.50;5005654;28;20056;-19
2023/06/18 03:44:03;;;;;;;9.95;5.60;;;;;;;16.90;100.00;99609.59;5005417;28;20053;-19
2023/06/18 03:46:30;;;;;;;14.45;6.65;;;;;;;17.01;100.00;99616.59;5005388;28;20026;-20
2023/06/18 03:48:55;;;;;;;13.10;6.80;;;;;;;17.01;100.00;99616.59;5005369;28;20057;-19
2023/06/18 03:51:21;;;;;;;18.42;6.57;;;;;;;17.05;100.00;99620.34;5005463;28;20038;-19
2023/06/18 03:53:46;;;;;;;14.13;6.13;;;;;;;17.08;100.00;99614.44;5005429;28;20037;-22
2023/06/18 03:56:12;;;;;;;14.52;6.78;;;;;;;17.10;100.00;99609.56;5005634;28;20045;-19
2023/06/18 03:58:37;;;;;;;13.32;6.70;;;;;;;17.11;100.00;99603.09;5005405;28;20026;-19
2023/06/18 04:01:02;;;;;;;13.52;6.30;;;;;;;17.15;100.00;99616.84;5005740;28;20720;-19
2023/06/18 04:03:28;;;;;;;14.40;6.90;;;;;;;17.16;100.00;99623.81;5005216;28;20068;-19
2023/06/18 04:05:53;;;;;;;16.63;7.40;;;;;;;17.35;100.00;99632.16;5005472;28;20021;-19
2023/06/18 04:08:19;;;;;;;28.65;7.30;;;;;;;17.74;100.00;99617.97;5005177;28;20113;-19
2023/06/18 04:10:47;;;;;;;14.07;6.72;;;;;;;17.93;100.00;99607.38;5005058;28;20048;-20
2023/06/18 04:13:16;;;;;;;15.77;6.40;;;;;;;18.12;100.00;99623.72;5005206;28;20038;-19
2023/06/18 04:15:45;;;;;;;15.15;7.45;;;;;;;18.08;100.00;99623.47;5008019;28;20080;-19
2023/06/18 04:18:11;;;;;;;14.43;7.60;;;;;;;18.20;100.00;99615.81;5008928;28;20029;-19
2023/06/18 04:20:36;;;;;;;12.05;8.15;;;;;;;18.32;100.00;99618.19;5008826;28;20030;-20
2023/06/18 04:23:02;;;;;;;14.93;7.72;;;;;;;18.39;100.00;99624.06;5008589;28;20038;-19
2023/06/18 04:25:27;;;;;;;13.68;7.85;;;;;;;18.51;100.00;99631.00;5008666;28;20089;-19
2023/06/18 04:27:53;;;;;;;11.55;6.93;;;;;;;18.59;100.00;99633.09;5008708;28;20026;-19
2023/06/18 04:30:19;;;;;;;16.08;8.10;;;;;;;18.79;100.00;99635.66;5008725;28;20026;-19
2023/06/18 04:32:45;;;;;;;11.20;7.28;;;;;;;18.93;100.00;99640.41;5008548;28;20091;-20
2023/06/18 04:35:10;;;;;;;12.18;7.00;;;;;;;19.02;100.00;99646.78;5008588;28;20026;-19
2023/06/18 04:37:36;;;;;;;11.52;7.20;;;;;;;19.12;100.00;99635.06;5008329;28;20069;-19
2023/06/18 04:40:05;;;;;;;11.57;7.07;;;;;;;19.28;100.00;99644.63;5008540;28;20116;-19
2023/06/18 04:42:30;;;;;;;10.27;6.85;;;;;;;19.54;100.00;99647.06;5008117;28;20036;-19
2023/06/18 04:44:56;;;;;;;11.25;6.95;;;;;;;19.68;100.00;99648.78;5008311;28;20022;-19
2023/06/18 04:47:21;;;;;;;10.52;6.70;;;;;;;19.78;100.00;99658.69;5008049;28;20069;-19
2023/06/18 04:49:46;;;;;;;11.70;7.38;;;;;;;19.85;100.00;99652.94;5008400;28;20041;-19
2023/06/18 04:52:12;;;;;;;12.98;7.57;;;;;;;19.93;100.00;99665.00;5008541;28;20030;-21
2023/06/18 04:54:39;;;;;;;9.70;7.38;;;;;;;20.00;100.00;99666.28;5007997;28;20037;-20
2023/06/18 04:57:04;;;;;;;12.98;7.75;;;;;;;20.19;100.00;99665.47;5006603;28;20790;-19
2023/06/18 04:59:30;;;;;;;12.15;8.02;;;;;;;20.02;100.00;99660.53;5006365;28;20509;-20
2023/06/18 05:01:55;;;;;;;13.20;7.60;;;;;;;20.09;100.00;99673.75;5007405;28;20240;-19
2023/06/18 05:04:21;;;;;;;12.25;8.05;;;;;;;20.15;100.00;99662.53;5007228;28;20026;-19
2023/06/18 05:06:46;;;;;;;10.65;7.72;;;;;;;20.16;100.00;99674.97;5007406;28;20029;-20
2023/06/18 05:09:12;;;;;;;9.45;7.53;;;;;;;20.11;100.00;99682.38;5007420;28;20049;-19
2023/06/18 05:11:38;;;;;;;11.73;8.00;;;;;;;20.05;100.00;99685.13;5007167;28;20528;-20
2023/06/18 05:14:05;;;;;;;11.00;7.70;;;;;;;19.97;100.00;99677.66;5006830;28;20026;-19
2023/06/18 05:16:31;;;;;;;12.52;8.65;;;;;;;19.96;100.00;99680.66;5007063;28;20030;-20
2023/06/18 05:18:56;;;;;;;10.35;7.55;;;;;;;19.83;100.00;99676.75;5007034;28;20077;-19
2023/06/18 05:21:22;;;;;;;10.57;8.02;;;;;;;19.85;100.00;99677.28;5007372;28;20804;-20
2023/06/18 05:23:47;;;;;;;12.40;9.02;;;;;;;19.87;100.00;99677.78;5006931;28;20120;-21
2023/06/18 05:26:13;;;;;;;12.68;7.93;;;;;;;19.79;100.00;99675.72;5006019;28;20030;-20
2023/06/18 05:28:38;;;;;;;10.05;7.50;;;;;;;19.82;100.00;99680.59;5007375;28;20041;-18
2023/06/18 05:31:04;;;;;;;9.73;7.70;;;;;;;19.81;100.00;99684.38;5006724;28;20030;-19
2023/06/18 05:33:29;;;;;;;11.77;8.75;;;;;;;19.91;100.00;99683.44;5007112;28;20077;-19
2023/06/18 05:35:55;;;;;;;10.55;7.93;;;;;;;19.94;100.00;99691.78;5006463;28;20095;-19
2023/06/18 05:38:20;;;;;;;11.77;8.60;;;;;;;20.15;100.00;99694.22;5006853;28;20026;-19
2023/06/18 05:40:46;;;;;;;9.52;7.63;;;;;;;20.34;100.00;99707.78;5006924;28;20416;-20
2023/06/18 05:43:11;;;;;;;10.52;7.60;;;;;;;20.39;100.00;99697.69;5006866;28;20441;-18
2023/06/18 05:45:37;;;;;;;10.33;7.43;;;;;;;20.40;100.00;99701.97;5001869;28;20136;-19
2023/06/18 05:48:04;;;;;;;9.30;7.43;;;;;;;20.27;100.00;99705.44;5006400;28;20125;-19
2023/06/18 05:50:30;;;;;;;10.33;8.10;;;;;;;20.14;100.00;99708.84;5001652;28;20104;-18
2023/06/18 05:52:55;;;;;;;9.23;7.20;;;;;;;20.06;100.00;99708.41;5006473;28;20049;-19
2023/06/18 05:55:21;;;;;;;11.48;7.55;;;;;;;20.10;100.00;99710.53;5006564;28;20064;-19
2023/06/18 05:57:47;;;;;;;11.70;8.50;;;;;;;20.21;100.00;99707.41;5006370;28;20468;-24
2023/06/18 06:00:13;;;;;;;10.07;7.97;;;;;;;20.31;100.00;99714.59;5006252;28;20038;-19
2023/06/18 06:02:38;;;;;;;10.85;7.68;;;;;;;20.31;100.00;99717.28;5006455;28;20037;-18
2023/06/18 06:05:04;;;;;;;9.02;7.70;;;;;;;20.43;100.00;99728.50;5006474;28;20026;-18
2023/06/18 06:07:30;;;;;;;10.60;7.75;;;;;;;20.51;100.00;99732.44;5006831;28;20049;-19
2023/06/18 06:09:55;;;;;;;9.77;7.50;;;;;;;20.61;100.00;99728.78;5006515;28;20079;-20
2023/06/18 06:12:21;;;;;;;9.25;7.03;;;;;;;20.47;100.00;99724.09;5006847;28;20331;-19
2023/06/18 06:14:47;;;;;;;10.20;7.95;;;;;;;20.54;100.00;99736.47;5006537;28;20108;-19
2023/06/18 06:17:12;;;;;;;10.18;7.65;;;;;;;20.67;100.00;99724.91;5006480;28;20128;-20
2023/06/18 06:19:38;;;;;;;10.18;8.32;;;;;;;20.65;100.00;99729.81;5006404;28;20877;-19
2023/06/18 06:22:03;;;;;;;11.13;7.55;;;;;;;20.79;100.00;99741.53;5006501;28;20038;-21
2023/06/18 06:24:29;;;;;;;9.02;7.78;;;;;;;20.88;100.00;99733.53;5006495;28;20068;-19
2023/06/18 06:26:55;;;;;;;8.93;6.85;;;;;;;20.95;100.00;99733.16;5006087;28;20038;-19
2023/06/18 06:29:20;;;;;;;11.60;7.95;;;;;;;20.92;100.00;99725.63;5006551;28;20038;-19
2023/06/18 06:31:46;;;;;;;10.27;7.68;;;;;;;20.94;100.00;99732.34;5006536;28;20030;-19
2023/06/18 06:34:11;;;;;;;9.98;7.63;;;;;;;21.21;100.00;99737.06;5006282;28;20026;-19
2023/06/18 06:36:38;;;;;;;11.93;8.88;;;;;;;21.37;100.00;99731.34;5005855;28;20034;-19
2023/06/18 06:39:04;;;;;;;10.02;7.85;;;;;;;21.66;100.00;99726.50;5006124;28;20018;-21
2023/06/18 06:41:29;;;;;;;12.88;8.82;;;;;;;21.89;100.00;99721.16;5006129;28;20026;-19
2023/06/18 06:43:55;;;;;;;11.15;7.85;;;;;;;22.26;100.00;99722.06;5005884;28;20066;-19
2023/06/18 06:46:20;;;;;;;9.60;6.82;;;;;;;22.21;95.48;99719.41;5005847;28;20765;-18
2023/06/18 06:48:45;;;;;;;9.10;6.25;;;;;;;22.21;91.22;99743.84;5006001;28;20030;-19
2023/06/18 06:51:11;;;;;;;8.63;6.95;;;;;;;21.93;93.98;99724.88;5006013;28;20030;-19
2023/06/18 06:53:36;;;;;;;9.32;7.38;;;;;;;22.03;95.21;99735.53;5005905;28;20055;-23
2023/06/18 06:56:02;;;;;;;9.27;6.25;;;;;;;21.86;94.19;99735.34;5006148;28;20038;-19
2023/06/18 06:58:27;;;;;;;10.23;7.45;;;;;;;21.94;94.75;99742.75;4991849;28;20120;-19
2023/06/18 07:00:53;;;;;;;11.27;7.72;;;;;;;22.05;96.62;99741.47;4985471;28;20077;-19
2023/06/18 07:03:19;;;;;;;10.35;7.63;;;;;;;21.72;95.39;99750.81;4986028;28;20038;-22
2023/06/18 07:05:44;;;;;;;12.43;7.45;;;;;;;21.75;96.84;99742.88;4986158;28;20034;-20
2023/06/18 07:08:10;;;;;;;8.00;6.97;;;;;;;21.99;98.48;99750.81;4985674;28;20030;-19
2023/06/18 07:10:36;;;;;;;10.90;7.10;;;;;;;22.11;98.03;99755.75;4986213;28;20521;-19
2023/06/18 07:13:02;;;;;;;8.68;6.93;;;;;;;22.12;96.15;99757.34;4985958;28;20054;-20
2023/06/18 07:15:27;;;;;;;9.45;7.38;;;;;;;22.21;94.79;99752.00;4985962;28;20040;-19
2023/06/18 07:17:52;;;;;;;9.88;7.57;;;;;;;22.32;96.86;99758.06;4985882;28;20038;-19
2023/06/18 07:20:18;;;;;;;9.73;7.82;;;;;;;22.59;96.35;99759.91;4986180;28;20030;-19
2023/06/18 07:22:43;;;;;;;9.45;8.07;;;;;;;22.53;93.59;99758.41;4985673;28;20022;-19
2023/06/18 07:25:09;;;;;;;9.52;6.97;;;;;;;22.66;92.02;99763.03;4985919;28;20552;-20
2023/06/18 07:27:35;;;;;;;9.32;6.78;;;;;;;22.96;91.65;99766.13;4985701;28;20035;-19
2023/06/18 07:30:01;;;;;;;10.60;6.28;;;;;;;22.88;90.16;99764.94;4985720;28;20034;-20
2023/06/18 07:32:26;;;;;;;8.43;6.03;;;;;;;23.08;89.63;99773.75;4985059;28;20037;-21
2023/06/18 07:34:52;;;;;;;8.23;6.07;;;;;;;23.15;87.52;99766.78;4984726;28;20263;-19
2023/06/18 07:37:17;;;;;;;8.27;6.00;;;;;;;23.17;89.52;99764.53;4985960;28;20884;-19
2023/06/18 07:39:42;;;;;;;8.57;6.50;;;;;;;23.19;89.68;99769.66;4984698;28;20069;-20
2023/06/18 07:42:08;;;;;;;7.45;6.13;;;;;;;23.42;89.72;99762.28;4985601;28;20057;-20
2023/06/18 07:44:33;;;;;;;7.97;5.53;;;;;;;23.51;87.84;99765.03;5003266;28;20042;-19
2023/06/18 07:46:59;;;;;;;8.38;5.38;;;;;;;23.24;86.40;99773.06;5005408;28;20034;-23
2023/06/18 07:49:24;;;;;;;6.95;5.82;;;;;;;23.43;85.32;99774.75;5006180;28;20033;-19
2023/06/18 07:51:50;;;;;;;8.82;5.85;;;;;;;23.35;85.28;99780.97;5009598;28;20029;-21
2023/06/18 07:54:15;;;;;;;8.65;5.60;;;;;;;23.43;86.82;99775.56;5009500;28;20401;-21
2023/06/18 07:56:41;;;;;;;8.63;5.47;;;;;;;23.38;85.46;99772.19;5009336;28;20033;-22
2023/06/18 07:59:06;;;;;;;7.40;5.28;;;;;;;23.49;87.18;99775.44;5009175;28;20460;-20
2023/06/18 08:01:32;;;;;;;7.65;5.97;;;;;;;23.61;85.00;99770.22;5009065;28;20046;-19
2023/06/18 08:03:57;;;;;;;7.45;4.88;;;;;;;23.81;81.93;99779.78;5008923;28;20116;-20
2023/06/18 08:06:24;;;;;;;6.88;4.95;;;;;;;23.78;81.11;99769.50;5009100;28;20075;-20
2023/06/18 08:08:50;;;;;;;7.82;5.45;;;;;;;23.98;81.99;99779.84;5009001;28;20025;-24
2023/06/18 08:11:17;;;;;;;6.35;4.97;;;;;;;23.84;78.25;99779.16;5009192;28;20048;-21
2023/06/18 08:13:42;;;;;;;7.18;5.43;;;;;;;23.74;84.11;99779.41;5008854;28;20021;-19
2023/06/18 08:16:08;;;;;;;6.93;5.05;;;;;;;24.30;81.91;99777.06;5008946;28;20030;-20
2023/06/18 08:18:34;;;;;;;5.40;4.50;;;;;;;24.19;76.59;99782.81;5008771;28;20030;-19
2023/06/18 08:21:00;;;;;;;7.80;4.78;;;;;;;24.09;77.97;99779.53;5008685;28;20033;-28
2023/06/18 08:23:26;;;;;;;7.35;4.25;;;;;;;24.31;77.44;99793.06;5008790;28;20022;-20
2023/06/18 08:25:51;;;;;;;6.75;5.00;;;;;;;24.61;75.14;99793.31;5008687;28;20030;-20
2023/06/18 08:28:17;;;;;;;6.20;4.75;;;;;;;24.73;74.76;99798.13;5008771;28;20030;-21
2023/06/18 08:30:42;;;;;;;6.45;5.13;;;;;;;24.58;72.39;99785.75;5008520;28;20030;-19
2023/06/18 08:33:11;;;;;;;8.52;5.30;;;;;;;24.60;78.31;99788.97;5008747;28;20032;-19
2023/06/18 08:35:39;;;;;;;6.97;4.85;;;;;;;24.39;77.95;99799.66;5008482;28;20022;-20
2023/06/18 08:38:05;;;;;;;7.43;5.45;;;;;;;24.43;79.88;99795.97;5008300;28;20037;-20
2023/06/18 08:40:52;;;;;;;10.10;6.15;;;;;;;25.05;79.33;99794.13;5008350;28;20041;-20
2023/06/18 08:43:26;;;;;;;7.05;5.00;;;;;;;25.50;74.54;99807.41;5008443;28;20130;-19
2023/06/18 08:45:52;;;;;;;6.72;4.60;;;;;;;25.81;73.21;99793.47;5008461;28;20038;-20
2023/06/18 08:48:27;;;;;;;8.38;5.53;;;;;;;25.64;71.38;99799.81;5008327;28;20029;-19
2023/06/18 08:51:15;;;;;;;8.13;5.72;;;;;;;25.63;76.33;99798.19;5008182;28;20045;-20
2023/06/18 08:53:44;;;;;;;7.82;5.70;;;;;;;25.39;73.25;99789.75;5007996;28;20026;-19
2023/06/18 08:56:10;;;;;;;8.93;5.47;;;;;;;25.02;72.08;99801.00;5008421;28;20092;-20
2023/06/18 08:58:42;;;;;;;7.50;5.63;;;;;;;24.86;76.17;99816.25;5007991;28;20041;-20
2023/06/18 09:01:07;;;;;;;8.20;5.82;;;;;;;24.30;75.21;99791.47;5007875;28;20114;-19
2023/06/18 09:03:37;;;;;;;7.78;5.82;;;;;;;23.96;77.22;99797.63;5007944;28;20096;-20
2023/06/18 09:06:03;;;;;;;7.45;5.88;;;;;;;24.04;77.62;99800.38;5007802;28;20029;-20
2023/06/18 09:08:30;;;;;;;8.02;5.82;;;;;;;24.03;80.12;99790.59;5007868;28;20041;-20
2023/06/18 09:10:57;;;;;;;10.83;6.33;;;;;;;24.21;78.65;99802.34;5008002;28;20045;-19
2023/06/18 09:13:23;;;;;;;9.25;6.60;;;;;;;24.40;77.28;99807.53;5007687;28;20281;-20
2023/06/18 09:15:48;;;;;;;7.65;5.82;;;;;;;24.70;76.26;99805.00;5008197;28;20076;-20
2023/06/18 09:18:15;;;;;;;6.28;5.20;;;;;;;25.12;76.12;99805.34;5007593;28;20034;-24
2023/06/18 09:20:40;;;;;;;6.35;5.20;;;;;;;25.03;71.37;99799.09;5007726;28;20436;-20
2023/06/18 09:23:10;;;;;;;5.88;5.15;;;;;;;24.51;71.41;99799.06;5007796;28;20026;-20
2023/06/18 09:25:38;;;;;;;7.32;5.75;;;;;;;24.58;74.61;99802.13;5007455;28;20030;-20
2023/06/18 09:28:04;;;;;;;7.88;5.43;;;;;;;24.34;75.31;99800.63;5007652;28;20044;-20
2023/06/18 09:30:29;;;;;;;7.63;5.75;;;;;;;24.57;75.56;99801.31;5007111;28;20025;-27
2023/06/18 09:32:59;;;;;;;7.22;5.15;;;;;;;24.81;70.79;99809.03;5007336;28;20393;-19
2023/06/18 09:35:26;;;;;;;7.35;5.68;;;;;;;24.80;73.17;99804.69;5007107;28;20064;-20
2023/06/18 09:37:52;;;;;;;7.95;5.60;;;;;;;24.96;71.45;99796.84;5007452;28;20088;-24
2023/06/18 09:40:20;;;;;;;6.82;4.45;;;;;;;24.76;70.34;99798.28;5007214;28;20033;-19
2023/06/18 09:42:45;;;;;;;9.55;5.32;;;;;;;25.16;73.65;99800.84;5007271;28;20046;-20
2023/06/18 09:45:12;;;;;;;6.82;5.10;;;;;;;25.58;70.93;99795.66;5007141;28;20103;-20
2023/06/18 09:47:43;;;;;;;7.45;5.53;;;;;;;25.84;70.94;99783.81;5006999;28;20081;-19
2023/06/18 09:50:11;;;;;;;6.93;5.43;;;;;;;26.30;67.94;99784.91;5007143;28;20022;-24
2023/06/18 09:52:48;;;;;;;6.53;4.53;;;;;;;26.00;65.25;99776.69;5007228;28;20022;-19
2023/06/18 09:55:27;;;;;;;8.27;5.13;;;;;;;26.48;65.01;99792.97;5007234;28;20493;-19
2023/06/18 09:57:53;;;;;;;7.45;5.10;;;;;;;26.33;68.73;99784.22;5007113;28;20065;-21
2023/06/18 10:00:19;;;;;;;5.82;3.78;;;;;;;26.48;61.44;99782.03;5006932;28;20021;-19
2023/06/18 10:02:44;;;;;;;6.40;4.63;;;;;;;26.83;63.26;99777.94;5007117;28;20028;-20
2023/06/18 10:05:10;;;;;;;5.60;4.10;;;;;;;26.88;61.60;99773.41;5006530;28;20030;-19
2023/06/18 10:07:40;;;;;;;6.85;4.40;;;;;;;26.93;62.52;99768.53;5006870;28;20034;-20
2023/06/18 10:10:13;;;;;;;6.80;5.03;;;;;;;26.91;62.82;99772.72;5006857;28;20095;-20
2023/06/18 10:12:41;;;;;;;6.43;4.13;;;;;;;26.84;63.67;99784.19;5006152;28;20034;-21
2023/06/18 10:15:08;;;;;;;7.22;4.05;;;;;;;27.22;61.38;99784.00;5006847;28;20041;-20
2023/06/18 10:17:38;;;;;;;5.93;4.97;;;;;;;27.45;62.62;99786.38;5006595;28;20030;-19
2023/06/18 10:20:06;;;;;;;7.03;4.38;;;;;;;27.19;60.44;99781.13;5006634;28;20029;-20
2023/06/18 10:22:41;;;;;;;6.93;4.53;;;;;;;27.08;64.15;99750.66;5006364;28;20053;-21
2023/06/18 10:25:07;;;;;;;6.28;4.43;;;;;;;27.51;57.52;99776.81;5006552;28;20034;-19
2023/06/18 10:27:34;;;;;;;7.25;4.20;;;;;;;27.06;58.54;99774.84;5006191;28;20040;-20
2023/06/18 10:30:00;;;;;;;6.80;5.55;;;;;;;27.54;58.95;99767.91;5006585;28;20512;-19
2023/06/18 10:32:27;;;;;;;7.20;4.40;;;;;;;27.90;59.35;99777.31;5006243;28;20057;-19
2023/06/18 10:34:54;;;;;;;6.47;3.65;;;;;;;27.68;55.58;99761.31;5006497;28;20021;-23
2023/06/18 10:37:20;;;;;;;;;;;;;;;28.02;59.68;99754.59;5006966;28;20060;-20
2023/06/18 10:39:47;;;;;;;5.63;3.33;;;;;;;28.38;55.69;99761.16;5006324;28;19913;-21
2023/06/18 10:42:14;;;;;;;6.55;3.80;;;;;;;28.17;55.32;99755.84;5006214;28;20037;-20
2023/06/18 10:45:00;;;;;;;6.00;3.28;;;;;;;27.87;53.33;99758.03;5005858;28;20058;-21
2023/06/18 10:47:30;;;;;;;5.90;3.35;;;;;;;27.67;53.48;99754.25;5006086;28;20076;-20
2023/06/18 10:50:16;;;;;;;5.68;3.60;;;;;;;27.37;57.46;99738.00;5006081;28;20104;-19
2023/06/18 10:52:49;;;;;;;7.37;3.30;;;;;;;27.81;55.30;99747.28;5006016;28;20042;-20
2023/06/18 10:55:20;;;;;;;5.40;3.25;;;;;;;27.57;56.34;99745.31;5006091;28;20034;-21
2023/06/18 10:57:50;;;;;;;5.82;3.40;;;;;;;27.94;55.65;99742.63;5006170;28;20102;-20
2023/06/18 11:00:18;;;;;;;6.57;4.00;;;;;;;27.93;56.11;99724.59;5005900;28;20161;-20
2023/06/18 11:02:46;;;;;;;5.75;3.65;;;;;;;28.08;57.04;99727.78;5005657;28;20097;-20
2023/06/18 11:05:18;;;;;;;5.72;3.58;;;;;;;27.92;55.74;99738.63;5006156;28;20034;-19
2023/06/18 11:07:59;;;;;;;5.53;4.05;;;;;;;27.72;59.95;99732.09;5005953;28;20037;-19
2023/06/18 11:10:47;;;;;;;6.85;4.38;;;;;;;27.55;58.72;99736.66;5005998;28;20076;-20
2023/06/18 11:13:13;;;;;;;4.50;3.45;;;;;;;27.46;56.99;99727.72;5005794;28;20033;-20
2023/06/18 11:15:57;;;;;;;5.93;3.70;;;;;;;27.55;57.62;99709.25;5005830;28;20048;-18
2023/06/18 11:18:26;;;;;;;5.43;3.45;;;;;;;27.70;55.19;99720.66;5005813;28;20435;-25
2023/06/18 11:20:53;;;;;;;5.75;3.50;;;;;;;27.66;56.48;99715.06;5005796;28;20034;-22
2023/06/18 11:23:19;;;;;;;4.22;3.25;;;;;;;28.02;54.77;99717.03;5005270;28;20073;-22